Terminal Aerodrome Forecast
Issued by NWS Cleveland, OH

Home | Current Version | Previous Version | Graphics & Text | Print | Product List | Glossary On
Versions: 1 2 3 4 5 6 7 8 9 10 11 12 13 14 15 16 17 18 19 20 21 22
000
FTUS41 KCLE 192200 AAA
TAFTOL
TAF AMD
KTOL 192232Z 1923/2018 28012KT 3SM SHRA OVC050
      TEMPO 1922/1924 2SM TSRA OVC025CB
     FM200100 20004KT 6SM BR BKN040
     FM200800 20004KT 4SM BR SCT012 BKN045
      TEMPO 2009/2013 2SM BR BKN012
     FM201400 25006KT P6SM SCT025 BKN120=

USA.gov is the U.S. government's official web portal to all federal, state and local government web resources and services.